Time;durP1;ratioP1;P1;durP2;ratioP2;P2;SDS_P1;SDS_P2;PMS_P1;PMS_P2;Temp;Humidity;BMP_temperature;BMP_pressure;BME280_temperature;BME280_humidity;BME280_pressure;Samples;Min_cycle;Max_cycle;Signal;HPM_P1;HPM_P2
2023/02/01 00:00:28;;;;;;;10.02;2.70;;;;;;;4.22;69.71;100759.91;4981690;28;20039;-48
2023/02/01 00:02:54;;;;;;;10.52;3.05;;;;;;;4.22;70.32;100753.91;4984512;28;20043;-51
2023/02/01 00:05:21;;;;;;;7.65;2.38;;;;;;;4.19;70.00;100756.38;4979184;28;20054;-51
2023/02/01 00:07:48;;;;;;;10.10;2.63;;;;;;;4.20;69.51;100745.28;4980965;28;20051;-49
2023/02/01 00:10:16;;;;;;;11.95;2.78;;;;;;;4.18;69.72;100739.22;4978418;28;20051;-50
2023/02/01 00:12:42;;;;;;;9.35;2.70;;;;;;;4.18;69.95;100746.91;4979005;28;20070;-49
2023/02/01 00:15:10;;;;;;;7.95;3.00;;;;;;;4.18;69.91;100741.78;4965480;28;20043;-51
2023/02/01 00:17:36;;;;;;;8.27;2.53;;;;;;;4.18;70.40;100741.78;4961553;28;20799;-48
2023/02/01 00:20:04;;;;;;;6.97;2.20;;;;;;;4.17;69.88;100734.91;4965944;28;20078;-48
2023/02/01 00:22:30;;;;;;;13.40;2.80;;;;;;;4.16;69.95;100748.56;4966876;28;20707;-48
2023/02/01 00:24:57;;;;;;;11.90;1.13;;;;;;;4.16;70.02;100748.56;4968115;28;20392;-48
2023/02/01 00:27:23;;;;;;;10.98;2.80;;;;;;;4.13;70.17;100738.19;4969576;28;20604;-49
2023/02/01 00:29:50;;;;;;;5.60;1.65;;;;;;;4.13;70.13;100743.31;4968477;28;20047;-50
2023/02/01 00:32:17;;;;;;;9.27;2.45;;;;;;;4.13;69.95;100748.44;4967440;28;20571;-46
2023/02/01 00:34:43;;;;;;;8.73;2.38;;;;;;;4.14;69.69;100742.50;4974046;28;20614;-47
2023/02/01 00:37:10;;;;;;;11.25;2.58;;;;;;;4.13;70.30;100743.31;4968237;28;20562;-49
2023/02/01 00:39:36;;;;;;;5.55;2.20;;;;;;;4.13;69.63;100738.19;4967112;28;20051;-51
2023/02/01 00:42:03;;;;;;;8.88;1.65;;;;;;;4.14;70.05;100734.81;4969941;28;20529;-49
2023/02/01 00:44:33;;;;;;;9.40;2.60;;;;;;;4.13;69.19;100743.31;4967400;28;20526;-49
2023/02/01 00:47:00;;;;;;;10.73;2.58;;;;;;;4.14;69.82;100739.94;4965614;28;20550;-51
2023/02/01 00:49:28;;;;;;;8.32;3.78;;;;;;;4.10;69.78;100742.41;4974776;28;20057;-48
2023/02/01 00:51:55;;;;;;;9.20;2.50;;;;;;;4.10;69.97;100734.72;4968206;28;20050;-48
2023/02/01 00:54:22;;;;;;;7.10;2.17;;;;;;;4.09;70.33;100738.06;4967305;28;20051;-49
2023/02/01 00:56:49;;;;;;;8.75;2.45;;;;;;;4.08;70.47;100741.47;4966336;28;20109;-47
2023/02/01 00:59:15;;;;;;;9.95;2.35;;;;;;;4.10;69.74;100742.41;4968356;28;20180;-48
2023/02/01 01:01:42;;;;;;;5.90;2.17;;;;;;;4.11;69.66;100740.69;4966257;28;20110;-49
2023/02/01 01:04:08;;;;;;;15.85;2.63;;;;;;;4.11;70.29;100736.47;4971199;28;20046;-49
2023/02/01 01:06:35;;;;;;;10.43;2.75;;;;;;;4.11;70.44;100736.47;4968300;28;20615;-47
2023/02/01 01:09:05;;;;;;;9.50;2.83;;;;;;;4.10;69.96;100739.84;4967599;28;20118;-49
2023/02/01 01:11:34;;;;;;;9.75;2.20;;;;;;;4.09;70.40;100738.06;4966060;28;20475;-50
2023/02/01 01:14:01;;;;;;;9.70;2.33;;;;;;;4.08;70.15;100736.34;4964969;28;20078;-48
2023/02/01 01:16:31;;;;;;;11.18;3.38;;;;;;;4.06;70.32;100726.84;4971784;28;20046;-50
2023/02/01 01:18:58;;;;;;;9.40;2.38;;;;;;;4.08;69.93;100736.34;4973651;28;20105;-48
2023/02/01 01:21:26;;;;;;;11.00;2.53;;;;;;;4.08;70.28;100741.47;4967884;28;20067;-48
2023/02/01 01:23:54;;;;;;;10.70;2.28;;;;;;;4.07;70.50;100750.00;4970980;28;20061;-47
2023/02/01 01:26:27;;;;;;;6.00;2.80;;;;;;;4.07;70.32;100747.41;4960790;28;20082;-47
2023/02/01 01:28:56;;;;;;;7.78;2.40;;;;;;;4.08;70.35;100756.84;4965831;28;20125;-48
2023/02/01 01:31:26;;;;;;;6.35;2.72;;;;;;;4.07;70.50;100755.13;4964908;28;20050;-47
2023/02/01 01:33:57;;;;;;;9.70;3.28;;;;;;;4.06;70.51;100753.34;4967708;28;20526;-47
2023/02/01 01:36:26;;;;;;;6.85;2.45;;;;;;;4.05;70.77;100745.63;4966543;28;20057;-47
2023/02/01 01:38:53;;;;;;;9.80;3.33;;;;;;;4.03;70.66;100748.13;4967932;28;20105;-47
2023/02/01 01:41:25;;;;;;;7.55;2.65;;;;;;;4.03;70.35;100753.25;4967172;28;20043;-48
2023/02/01 01:43:57;;;;;;;7.68;2.60;;;;;;;4.04;70.34;100744.75;4960623;28;20490;-47
2023/02/01 01:46:33;;;;;;;5.95;2.53;;;;;;;4.05;70.68;100731.09;4967432;28;20081;-47
2023/02/01 01:49:13;;;;;;;7.05;2.60;;;;;;;4.06;70.70;100722.59;4965190;28;20101;-51
2023/02/01 01:51:49;;;;;;;6.15;2.75;;;;;;;4.06;70.74;100722.59;4979929;28;20051;-50
2023/02/01 01:54:25;;;;;;;6.72;0.88;;;;;;;4.05;70.83;100725.97;4960682;28;20455;-49
2023/02/01 01:57:04;;;;;;;8.20;2.67;;;;;;;4.05;70.84;100722.56;4966715;28;20134;-48
2023/02/01 01:59:35;;;;;;;8.98;2.83;;;;;;;4.04;70.76;100733.59;4962981;28;20076;-47
2023/02/01 02:02:02;;;;;;;8.65;2.50;;;;;;;4.01;70.87;100719.00;4956422;28;20504;-49
2023/02/01 02:04:29;;;;;;;10.95;2.42;;;;;;;4.03;70.85;100721.63;4963466;28;20047;-48
2023/02/01 02:07:03;;;;;;;7.10;2.08;;;;;;;4.00;71.49;100717.25;4959083;28;20057;-48
2023/02/01 02:09:30;;;;;;;6.10;2.17;;;;;;;4.02;70.94;100713.03;4956617;28;20565;-46
2023/02/01 02:11:57;;;;;;;5.32;2.40;;;;;;;4.01;70.71;100711.31;4962459;28;20569;-47
2023/02/01 02:14:25;;;;;;;8.25;2.42;;;;;;;4.01;70.71;100716.44;4963138;28;20077;-49
2023/02/01 02:20:29;;;;;;;6.00;1.13;;;;;;;3.96;70.98;100703.44;5035868;27;20408;-49
2023/02/01 02:23:35;;;;;;;3.38;0.80;;;;;;;3.95;71.72;100700.84;5017818;28;20128;-47
2023/02/01 02:48:46;;;;;;;11.88;1.48;;;;;;;4.07;71.62;100696.16;4989388;28;20054;-46
2023/02/01 03:05:33;;;;;;;3.78;2.03;;;;;;;4.07;72.14;100698.72;5016850;28;20076;-47
2023/02/01 03:10:51;;;;;;;12.98;2.72;;;;;;;4.07;71.71;100705.53;5047331;27;20390;-47
2023/02/01 03:19:33;;;;;;;9.45;2.85;;;;;;;4.05;71.72;100731.09;5062302;27;20391;-50
2023/02/01 03:22:05;;;;;;;8.38;2.45;;;;;;;4.07;71.86;100738.84;5020314;28;20791;-48
2023/02/01 03:24:37;;;;;;;9.38;2.55;;;;;;;4.07;71.47;100738.84;5022649;28;20049;-49
2023/02/01 03:27:14;;;;;;;13.75;2.25;;;;;;;4.06;71.46;100745.66;4998692;28;20070;-47
2023/02/01 03:30:05;;;;;;;8.20;2.10;;;;;;;4.04;71.40;100739.63;4998481;28;20046;-47
2023/02/01 03:32:58;;;;;;;5.28;2.55;;;;;;;4.02;71.76;100743.81;5023587;28;20045;-48
2023/02/01 03:35:27;;;;;;;7.65;2.08;;;;;;;4.00;71.61;100740.34;4997838;28;20045;-48
2023/02/01 03:38:01;;;;;;;11.95;2.75;;;;;;;3.98;71.81;100736.81;5016415;28;20115;-48
2023/02/01 03:40:33;;;;;;;5.70;2.08;;;;;;;3.95;71.91;100739.31;5000764;28;20050;-48
2023/02/01 03:43:04;;;;;;;15.52;2.72;;;;;;;3.95;71.86;100744.44;5019907;28;20112;-48
2023/02/01 03:45:40;;;;;;;11.07;2.60;;;;;;;3.93;71.40;100736.69;5056105;28;20087;-47
2023/02/01 03:48:08;;;;;;;9.32;2.58;;;;;;;3.90;72.22;100730.56;5056721;28;20045;-46
2023/02/01 03:50:38;;;;;;;8.40;1.90;;;;;;;3.89;71.96;100734.84;5056954;28;20068;-48
2023/02/01 03:53:10;;;;;;;6.55;2.67;;;;;;;3.89;71.69;100733.94;5055046;28;20076;-47
2023/02/01 03:55:38;;;;;;;9.20;2.20;;;;;;;3.86;71.89;100727.88;5032384;28;20072;-48
2023/02/01 03:58:11;;;;;;;8.02;2.30;;;;;;;3.83;72.14;100730.38;5054969;28;20741;-50
2023/02/01 04:00:38;;;;;;;4.28;2.35;;;;;;;3.80;72.16;100720.00;5057092;28;20489;-51
2023/02/01 04:03:06;;;;;;;9.23;2.42;;;;;;;3.81;72.35;100720.84;5074816;28;20072;-51
2023/02/01 04:05:34;;;;;;;6.55;3.10;;;;;;;3.79;72.13;100722.50;5050530;28;20070;-50
2023/02/01 04:08:00;;;;;;;5.90;2.75;;;;;;;3.78;72.36;100721.63;5061172;28;20090;-48
2023/02/01 04:10:27;;;;;;;7.00;2.30;;;;;;;3.77;72.18;100714.75;5059336;28;20139;-48
2023/02/01 04:12:54;;;;;;;5.18;2.50;;;;;;;3.75;72.31;100708.69;5056533;28;20098;-50
2023/02/01 04:15:21;;;;;;;8.13;2.17;;;;;;;3.75;72.24;100701.00;5050950;28;20041;-49
2023/02/01 04:17:47;;;;;;;8.63;2.22;;;;;;;3.75;72.31;100695.03;5058154;28;20071;-49
2023/02/01 04:20:14;;;;;;;10.57;2.40;;;;;;;3.74;72.54;100694.13;5052859;28;20041;-49
2023/02/01 04:22:40;;;;;;;6.38;2.17;;;;;;;3.75;72.36;100689.91;5053465;28;20045;-50
2023/02/01 04:25:07;;;;;;;6.35;1.77;;;;;;;3.74;72.30;100689.00;5052380;28;20080;-50
2023/02/01 04:27:35;;;;;;;8.10;3.35;;;;;;;3.73;72.05;100682.16;5076113;28;20083;-50
2023/02/01 04:30:03;;;;;;;7.88;2.20;;;;;;;3.76;72.69;100677.13;5042133;28;20095;-47
2023/02/01 04:32:29;;;;;;;7.00;2.72;;;;;;;3.75;72.92;100674.53;5043714;28;20075;-48
2023/02/01 04:34:56;;;;;;;5.25;2.72;;;;;;;3.76;72.55;100678.81;5044411;28;20056;-48
2023/02/01 04:37:22;;;;;;;6.18;2.53;;;;;;;3.78;72.39;100690.88;5045173;28;20077;-49
2023/02/01 04:39:49;;;;;;;4.82;2.35;;;;;;;3.77;72.83;100693.38;5037513;28;20121;-48
2023/02/01 04:42:15;;;;;;;9.55;2.50;;;;;;;3.79;73.31;100687.50;5043252;28;20061;-49
2023/02/01 04:44:42;;;;;;;10.00;1.40;;;;;;;3.77;72.88;100686.56;5044210;28;20654;-51
2023/02/01 04:47:09;;;;;;;11.77;2.78;;;;;;;3.79;72.30;100697.75;5043621;28;20103;-49
2023/02/01 04:49:36;;;;;;;7.90;2.95;;;;;;;3.80;72.76;100702.06;5044866;28;20676;-49
2023/02/01 04:52:03;;;;;;;5.22;2.13;;;;;;;3.79;72.87;100697.75;5046577;28;20045;-49
2023/02/01 04:54:29;;;;;;;5.97;2.97;;;;;;;3.81;73.06;100701.22;5038620;28;20087;-49
2023/02/01 04:56:56;;;;;;;3.45;2.55;;;;;;;3.82;72.49;100692.72;5044210;28;20573;-47
2023/02/01 04:59:22;;;;;;;8.15;2.35;;;;;;;3.81;72.88;100700.34;5042862;28;20505;-47
2023/02/01 05:01:49;;;;;;;7.38;2.33;;;;;;;3.79;73.20;100697.75;5046923;28;20548;-47
2023/02/01 05:04:18;;;;;;;5.00;1.83;;;;;;;3.83;73.07;100696.16;5041879;28;20132;-47
2023/02/01 05:06:45;;;;;;;8.00;2.17;;;;;;;3.84;73.06;100701.34;5040542;28;20117;-47
2023/02/01 05:09:11;;;;;;;7.88;2.92;;;;;;;3.84;72.72;100696.22;5042695;28;20041;-50
2023/02/01 05:14:25;;;;;;;8.30;2.90;;;;;;;3.83;72.76;100694.47;5038743;28;20080;-47
2023/02/01 05:16:51;;;;;;;11.80;2.67;;;;;;;3.86;72.98;100709.09;5042448;28;20107;-48
2023/02/01 05:19:18;;;;;;;5.75;2.47;;;;;;;3.87;73.00;100695.44;5045603;28;20053;-48
2023/02/01 05:21:45;;;;;;;9.45;2.50;;;;;;;3.87;73.05;100695.44;5046518;28;20077;-46
2023/02/01 05:24:20;;;;;;;7.13;2.85;;;;;;;3.89;73.17;100698.06;5043966;28;20075;-48
2023/02/01 05:26:48;;;;;;;4.03;2.08;;;;;;;3.89;72.63;100698.94;5042193;28;20139;-48
2023/02/01 05:29:16;;;;;;;6.78;3.08;;;;;;;3.88;72.96;100691.22;5064633;28;20072;-48
2023/02/01 05:31:44;;;;;;;7.22;2.80;;;;;;;3.92;72.79;100690.50;5053159;28;20570;-47
2023/02/01 05:34:12;;;;;;;8.27;2.42;;;;;;;3.92;72.99;100693.06;5039737;28;20535;-49
2023/02/01 05:36:39;;;;;;;6.97;2.40;;;;;;;3.91;73.14;100681.03;5040238;28;20087;-48
2023/02/01 05:39:05;;;;;;;8.70;2.65;;;;;;;3.93;72.92;100689.66;5036099;28;20064;-48
2023/02/01 05:41:32;;;;;;;7.70;2.92;;;;;;;3.94;72.87;100688.84;5040618;28;20045;-46
2023/02/01 05:43:59;;;;;;;7.93;2.38;;;;;;;3.93;72.88;100685.41;5042621;28;20049;-47
2023/02/01 05:46:25;;;;;;;6.45;2.40;;;;;;;3.96;72.88;100689.78;5036032;28;20563;-47
2023/02/01 05:48:52;;;;;;;7.40;1.88;;;;;;;3.95;72.75;100693.16;5036876;28;20099;-47
2023/02/01 05:51:18;;;;;;;5.22;2.22;;;;;;;3.95;72.58;100690.59;5040311;28;20076;-47
2023/02/01 05:53:45;;;;;;;4.43;2.60;;;;;;;3.94;73.28;100691.41;5043007;28;20060;-49
2023/02/01 05:56:12;;;;;;;9.10;3.20;;;;;;;3.95;72.88;100693.16;5039704;28;20131;-47
2023/02/01 05:58:38;;;;;;;6.63;1.85;;;;;;;3.94;72.81;100692.28;5042785;28;20081;-48
2023/02/01 06:01:05;;;;;;;7.47;1.90;;;;;;;3.95;72.87;100693.16;5042062;28;20128;-46
2023/02/01 06:03:31;;;;;;;4.40;1.65;;;;;;;3.95;73.19;100690.59;5039484;28;20049;-46
2023/02/01 06:06:00;;;;;;;10.23;2.15;;;;;;;3.95;73.27;100698.28;5042221;28;20057;-49
2023/02/01 06:08:27;;;;;;;9.52;2.35;;;;;;;3.94;72.99;100696.53;5044243;28;20036;-49
2023/02/01 06:11:00;;;;;;;7.97;2.05;;;;;;;3.94;73.36;100701.66;5045322;28;20049;-47
2023/02/01 06:13:27;;;;;;;8.13;2.38;;;;;;;3.94;73.01;100697.41;5038552;28;20045;-50
2023/02/01 06:15:54;;;;;;;6.25;2.60;;;;;;;3.95;73.32;100708.53;5041492;28;20098;-51
2023/02/01 06:18:20;;;;;;;6.78;2.10;;;;;;;3.96;73.16;100702.59;5045100;28;20069;-51
2023/02/01 06:20:53;;;;;;;5.05;2.53;;;;;;;3.98;72.77;100706.06;5045587;28;20088;-48
2023/02/01 06:23:19;;;;;;;10.93;2.65;;;;;;;3.98;73.03;100703.50;5056784;28;20080;-50
2023/02/01 06:25:46;;;;;;;5.10;1.48;;;;;;;3.98;73.19;100695.81;5034525;28;20080;-49
2023/02/01 06:28:13;;;;;;;10.70;2.10;;;;;;;4.00;73.28;100701.88;5045124;28;20049;-49
2023/02/01 06:30:42;;;;;;;9.20;2.47;;;;;;;3.98;73.10;100698.38;5040904;28;20060;-49
2023/02/01 06:33:09;;;;;;;4.75;0.85;;;;;;;3.97;72.98;100700.09;5043951;28;20729;-47
2023/02/01 06:35:36;;;;;;;10.90;2.15;;;;;;;3.99;73.23;100705.28;5042182;28;20073;-48
2023/02/01 06:38:02;;;;;;;8.80;2.70;;;;;;;3.99;73.17;100700.16;5037818;28;20150;-48
2023/02/01 06:40:29;;;;;;;10.75;2.78;;;;;;;3.99;72.97;100701.00;5045016;28;20045;-48
2023/02/01 06:42:55;;;;;;;5.57;0.82;;;;;;;3.98;73.14;100699.25;5039575;28;20440;-47
2023/02/01 06:45:22;;;;;;;11.32;2.17;;;;;;;3.97;73.64;100697.53;5041561;28;20504;-48
2023/02/01 06:47:49;;;;;;;10.60;2.22;;;;;;;4.00;73.29;100696.75;5039678;28;20111;-47
2023/02/01 06:50:15;;;;;;;8.52;2.80;;;;;;;4.00;73.45;100694.19;5040186;28;20135;-48
2023/02/01 06:52:42;;;;;;;9.60;0.80;;;;;;;4.01;72.76;100698.50;5044335;28;20495;-47
2023/02/01 06:55:09;;;;;;;7.72;2.70;;;;;;;4.00;72.99;100696.75;5044760;28;20076;-47
2023/02/01 06:57:35;;;;;;;6.82;2.15;;;;;;;4.01;73.39;100701.06;5040273;28;20045;-51
2023/02/01 07:00:04;;;;;;;11.23;2.38;;;;;;;4.00;73.48;100699.31;5038480;28;20072;-50
2023/02/01 07:02:31;;;;;;;8.35;2.67;;;;;;;4.01;73.44;100689.94;5051545;28;20075;-49
2023/02/01 07:04:57;;;;;;;9.65;2.50;;;;;;;4.01;73.28;100692.50;5039788;28;20066;-50
2023/02/01 07:07:24;;;;;;;14.68;3.08;;;;;;;4.00;73.62;100696.75;5042371;28;20069;-49
2023/02/01 07:09:51;;;;;;;6.13;2.05;;;;;;;4.02;73.18;100704.50;5057706;28;20049;-51
2023/02/01 07:12:18;;;;;;;6.90;2.20;;;;;;;4.01;73.35;100713.88;5039556;28;20140;-47
2023/02/01 07:14:45;;;;;;;8.57;2.60;;;;;;;4.01;73.19;100718.16;5039304;28;20175;-48
2023/02/01 07:17:11;;;;;;;8.10;1.10;;;;;;;4.01;73.15;100713.88;5041269;28;20386;-50
2023/02/01 07:19:38;;;;;;;6.22;2.53;;;;;;;4.03;72.98;100716.50;5042326;28;20086;-50
2023/02/01 07:22:05;;;;;;;13.90;3.30;;;;;;;4.03;73.33;100727.63;5037434;28;20106;-48
2023/02/01 07:24:33;;;;;;;23.00;8.52;;;;;;;4.05;74.01;100725.97;5040327;28;20049;-47
2023/02/01 07:26:59;;;;;;;7.95;3.10;;;;;;;4.06;73.51;100732.84;5038409;28;20668;-50
2023/02/01 07:29:26;;;;;;;15.57;4.30;;;;;;;4.07;73.40;100732.03;5044852;28;20076;-47
2023/02/01 07:31:53;;;;;;;13.65;3.45;;;;;;;4.09;73.40;100739.78;5042788;28;20420;-47
2023/02/01 07:34:19;;;;;;;21.48;8.05;;;;;;;4.08;73.60;100726.09;5040436;28;20044;-49
2023/02/01 07:36:46;;;;;;;17.92;7.63;;;;;;;4.10;73.25;100724.47;5041724;28;20045;-47
2023/02/01 07:39:12;;;;;;;18.92;6.18;;;;;;;4.12;73.32;100732.19;5040555;28;20128;-49
2023/02/01 07:41:39;;;;;;;16.08;5.72;;;;;;;4.11;73.31;100731.31;5041933;28;20076;-48
2023/02/01 07:44:05;;;;;;;15.38;6.38;;;;;;;4.11;73.14;100735.56;5043669;28;20520;-49
2023/02/01 07:46:32;;;;;;;15.05;4.05;;;;;;;4.13;73.05;100738.19;5046216;28;20102;-50
2023/02/01 07:48:59;;;;;;;14.38;5.63;;;;;;;4.14;72.81;100734.81;5040576;28;20415;-51
2023/02/01 07:51:25;;;;;;;12.55;4.03;;;;;;;4.15;73.18;100736.56;5042129;28;20049;-48
2023/02/01 07:53:52;;;;;;;11.77;4.20;;;;;;;4.16;73.11;100743.44;5038913;28;20412;-47
2023/02/01 07:56:22;;;;;;;11.52;3.22;;;;;;;4.16;73.27;100733.19;5038051;28;20098;-48
2023/02/01 07:58:50;;;;;;;13.38;6.22;;;;;;;4.19;73.08;100735.84;5037186;28;20146;-51
2023/02/01 08:01:20;;;;;;;11.90;5.30;;;;;;;4.22;73.29;100734.25;5012809;28;20045;-49
2023/02/01 08:03:50;;;;;;;8.90;3.85;;;;;;;4.26;72.64;100735.25;5039031;28;20064;-48
2023/02/01 08:06:17;;;;;;;12.73;3.92;;;;;;;4.31;73.38;100743.97;5039110;28;20076;-47
2023/02/01 08:08:44;;;;;;;13.40;3.45;;;;;;;4.40;72.57;100742.53;5053372;28;20168;-48
2023/02/01 08:11:12;;;;;;;12.05;2.65;;;;;;;4.47;72.94;100745.38;5043031;28;20048;-49
2023/02/01 08:13:39;;;;;;;5.28;2.33;;;;;;;4.58;72.62;100748.28;5038040;28;20076;-49
2023/02/01 08:16:07;;;;;;;6.65;4.07;;;;;;;4.69;72.49;100755.47;5046274;28;20544;-47
2023/02/01 08:18:36;;;;;;;13.13;3.60;;;;;;;4.74;72.67;100739.41;5041507;28;20041;-48
2023/02/01 08:21:09;;;;;;;14.40;5.75;;;;;;;4.84;72.38;100749.94;5041715;28;20327;-48
2023/02/01 08:23:37;;;;;;;11.57;2.63;;;;;;;4.97;72.56;100746.94;5036731;28;20611;-51
2023/02/01 08:26:25;;;;;;;16.65;5.53;;;;;;;5.21;72.55;100750.22;5041318;28;20064;-48
2023/02/01 08:28:56;;;;;;;13.68;4.38;;;;;;;5.39;71.42;100753.38;5036630;28;20049;-48
2023/02/01 08:31:24;;;;;;;9.75;3.60;;;;;;;5.59;70.98;100745.38;5044544;28;20053;-50
2023/02/01 08:33:54;;;;;;;11.85;3.95;;;;;;;5.86;71.34;100752.13;5047563;28;20095;-51
2023/02/01 08:36:22;;;;;;;8.13;5.07;;;;;;;6.24;71.04;100750.56;5055694;28;20050;-50
2023/02/01 08:38:49;;;;;;;12.30;3.80;;;;;;;6.71;69.82;100738.84;5056630;28;20045;-50
2023/02/01 08:41:18;;;;;;;13.45;4.68;;;;;;;7.19;69.17;100740.84;5042117;28;20587;-50
2023/02/01 08:43:45;;;;;;;10.65;4.97;;;;;;;7.66;69.16;100741.84;5036328;28;20045;-50
2023/02/01 08:46:12;;;;;;;13.60;6.43;;;;;;;8.10;69.18;100729.78;5031175;28;20069;-51
2023/02/01 08:48:39;;;;;;;16.20;4.47;;;;;;;8.56;68.19;100736.63;5035230;28;20045;-52
2023/02/01 08:51:09;;;;;;;12.60;5.00;;;;;;;9.05;68.09;100733.06;5043428;28;20048;-50
2023/02/01 08:53:37;;;;;;;12.00;5.30;;;;;;;9.45;67.15;100735.31;5039351;28;20053;-50
2023/02/01 08:56:04;;;;;;;12.90;4.18;;;;;;;9.84;66.45;100731.50;5038764;28;20106;-51
2023/02/01 08:58:31;;;;;;;10.93;4.43;;;;;;;10.39;65.61;100734.63;5042553;28;20065;-48
2023/02/01 09:01:04;;;;;;;10.10;3.85;;;;;;;10.98;65.36;100739.44;5048017;28;20052;-49
2023/02/01 09:03:31;;;;;;;13.63;6.80;;;;;;;11.49;63.81;100749.25;5043545;28;20054;-49
2023/02/01 09:06:04;;;;;;;9.50;4.03;;;;;;;12.04;62.11;100747.69;5043107;28;20049;-48
2023/02/01 09:08:32;;;;;;;13.25;4.40;;;;;;;12.45;61.08;100749.53;5032215;28;20548;-51
2023/02/01 09:11:05;;;;;;;7.00;3.67;;;;;;;12.91;60.18;100749.53;5039061;28;20128;-51
2023/02/01 09:13:33;;;;;;;11.50;3.08;;;;;;;13.39;60.28;100751.16;5041317;28;20061;-52
2023/02/01 09:16:00;;;;;;;7.32;2.60;;;;;;;13.83;58.83;100750.16;5058902;28;20041;-47
2023/02/01 09:18:26;;;;;;;10.98;3.60;;;;;;;14.21;57.74;100755.13;5041195;28;20493;-49
2023/02/01 09:20:53;;;;;;;8.90;1.85;;;;;;;14.55;56.89;100754.88;5037593;28;20756;-48
2023/02/01 09:23:20;;;;;;;10.20;3.85;;;;;;;14.87;55.94;100759.00;5044645;28;20110;-49
2023/02/01 09:25:50;;;;;;;10.35;3.30;;;;;;;15.17;55.33;100745.69;5042680;28;20139;-47
2023/02/01 09:28:17;;;;;;;9.23;3.35;;;;;;;15.61;54.29;100748.66;5046951;28;20048;-50
2023/02/01 09:30:44;;;;;;;12.38;3.55;;;;;;;16.05;54.92;100755.94;5036759;28;20333;-47
2023/02/01 09:33:10;;;;;;;7.47;3.03;;;;;;;16.43;53.17;100749.28;5037054;28;20049;-48
2023/02/01 09:35:37;;;;;;;14.05;5.30;;;;;;;16.76;51.96;100747.88;5037912;28;20126;-51
2023/02/01 09:38:04;;;;;;;10.73;4.47;;;;;;;17.09;51.93;100750.78;5036145;28;20055;-46
2023/02/01 09:40:34;;;;;;;11.20;5.95;;;;;;;17.35;50.87;100752.03;5060012;28;20590;-48
2023/02/01 09:45:55;;;;;;;9.10;2.78;;;;;;;17.75;49.56;100759.97;5026257;28;20413;-53
2023/02/01 09:48:31;;;;;;;8.45;2.72;;;;;;;17.88;48.65;100761.44;5018922;28;20069;-49
2023/02/01 09:51:02;;;;;;;7.00;1.45;;;;;;;18.13;47.90;100750.44;5015205;28;20080;-48
2023/02/01 09:53:36;;;;;;;6.32;1.88;;;;;;;18.32;47.38;100755.25;5021245;28;20084;-50
2023/02/01 09:56:06;;;;;;;9.30;1.52;;;;;;;18.33;45.97;100751.72;5018378;28;20053;-51
2023/02/01 10:01:18;;;;;;;6.22;1.08;;;;;;;18.45;44.97;100747.94;5053745;28;20384;-50
2023/02/01 10:03:45;;;;;;;7.90;1.58;;;;;;;18.50;45.26;100754.81;5021182;28;20042;-53
2023/02/01 10:06:52;;;;;;;9.40;1.80;;;;;;;18.54;45.30;100757.34;5022749;28;20050;-51
2023/02/01 10:09:58;;;;;;;6.82;2.47;;;;;;;18.63;45.50;100754.50;5039985;28;20079;-51
2023/02/01 10:12:53;;;;;;;8.98;2.17;;;;;;;18.65;43.75;100742.22;5022628;28;20073;-50
2023/02/01 10:15:44;;;;;;;5.25;0.90;;;;;;;18.80;44.28;100751.44;5020081;28;20077;-50
2023/02/01 10:20:57;;;;;;;7.00;1.27;;;;;;;18.94;43.57;100766.81;5026774;27;20402;-53
2023/02/01 10:28:40;;;;;;;9.90;2.95;;;;;;;19.13;43.62;100769.00;5051316;27;20398;-52
2023/02/01 10:31:09;;;;;;;8.93;2.85;;;;;;;19.18;43.32;100769.72;5022149;28;20069;-50
2023/02/01 10:33:44;;;;;;;6.85;2.50;;;;;;;19.19;43.00;100767.97;5021954;28;20138;-51
2023/02/01 10:36:19;;;;;;;5.93;2.40;;;;;;;19.05;42.79;100763.06;5020261;28;20104;-50
2023/02/01 10:38:46;;;;;;;10.38;2.67;;;;;;;18.52;41.95;100767.88;5016655;28;20418;-54
2023/02/01 10:41:17;;;;;;;6.80;2.92;;;;;;;18.14;42.31;100767.91;5022376;28;20072;-49
2023/02/01 10:43:49;;;;;;;9.85;2.70;;;;;;;17.68;42.62;100769.72;5022587;28;20073;-50
2023/02/01 10:46:17;;;;;;;6.78;2.22;;;;;;;17.16;44.25;100789.03;5025871;28;20077;-49
2023/02/01 10:48:43;;;;;;;7.38;2.10;;;;;;;16.73;44.20;100779.31;5028643;28;20056;-49
2023/02/01 10:56:27;;;;;;;13.95;3.40;;;;;;;15.24;46.73;100777.78;5030351;28;20390;-51
2023/02/01 10:59:05;;;;;;;15.52;2.97;;;;;;;14.72;47.49;100785.16;4998902;28;20046;-51
2023/02/01 11:01:40;;;;;;;12.75;2.88;;;;;;;14.17;48.33;100789.88;5007992;28;20066;-52
2023/02/01 11:04:12;;;;;;;8.18;1.63;;;;;;;13.95;49.36;100787.41;4996612;28;20457;-49
2023/02/01 11:06:41;;;;;;;7.32;1.05;;;;;;;13.51;50.19;100782.34;5002834;28;20089;-52
2023/02/01 11:20:01;;;;;;;8.13;0.95;;;;;;;12.40;52.53;100794.56;5052606;28;20385;-51
2023/02/01 11:22:29;;;;;;;11.65;1.20;;;;;;;12.24;53.39;100794.53;5004591;28;20068;-49
2023/02/01 11:24:57;;;;;;;5.85;1.10;;;;;;;12.03;53.17;100784.91;5007932;28;20050;-49
2023/02/01 11:27:25;;;;;;;13.23;1.45;;;;;;;11.79;53.45;100796.94;4999912;28;20054;-50
2023/02/01 11:29:59;;;;;;;10.50;2.03;;;;;;;11.73;54.91;100782.22;5002575;28;20050;-51
2023/02/01 11:32:27;;;;;;;7.82;1.17;;;;;;;11.67;53.86;100788.25;5002337;28;20070;-49
2023/02/01 11:35:16;;;;;;;10.35;1.38;;;;;;;11.43;55.26;100783.78;5000299;28;20108;-50
2023/02/01 11:37:54;;;;;;;10.18;2.05;;;;;;;11.35;55.60;100775.94;5001286;28;20082;-48
2023/02/01 11:43:00;;;;;;;10.07;1.00;;;;;;;11.23;56.24;100776.75;5095812;27;20433;-49
2023/02/01 11:45:30;;;;;;;6.60;1.17;;;;;;;11.17;56.32;100782.78;5079389;28;20070;-51
2023/02/01 11:47:58;;;;;;;8.23;1.77;;;;;;;11.05;56.05;100775.78;5074171;28;20052;-49
2023/02/01 11:50:34;;;;;;;7.43;1.35;;;;;;;11.00;56.08;100777.47;5081114;28;20543;-50
2023/02/01 11:53:18;;;;;;;6.85;1.73;;;;;;;10.99;57.06;100773.16;5075812;28;20053;-49
2023/02/01 11:56:21;;;;;;;6.88;1.10;;;;;;;10.90;57.31;100771.34;5074923;28;20488;-48
2023/02/01 11:59:27;;;;;;;10.90;0.93;;;;;;;10.86;57.53;100763.53;5052394;28;20053;-49
2023/02/01 12:02:12;;;;;;;4.25;1.10;;;;;;;10.78;57.26;100764.34;5052350;28;20049;-50
2023/02/01 12:10:33;;;;;;;9.73;2.55;;;;;;;10.78;57.79;100768.69;5056699;27;20392;-50
2023/02/01 12:13:39;;;;;;;6.72;1.90;;;;;;;10.63;57.79;100769.41;5010941;28;20046;-50
2023/02/01 12:19:11;;;;;;;9.30;1.10;;;;;;;10.65;58.85;100767.69;5057138;28;20913;-50
2023/02/01 12:43:49;;;;;;;6.95;1.20;;;;;;;10.45;59.00;100760.63;5087323;27;20397;-51
2023/02/01 12:46:23;;;;;;;8.75;1.00;;;;;;;10.46;59.85;100764.94;5037837;28;20099;-50
2023/02/01 12:51:31;;;;;;;7.45;1.58;;;;;;;10.42;59.42;100755.38;5017606;27;20414;-48
2023/02/01 12:54:22;;;;;;;3.42;1.20;;;;;;;10.35;59.27;100763.94;5007910;28;20073;-49
2023/02/01 12:59:38;;;;;;;11.27;2.60;;;;;;;10.35;60.05;100763.94;5019125;28;20411;-48
2023/02/01 13:07:33;;;;;;;3.42;1.00;;;;;;;10.25;60.15;100753.50;5058609;27;20381;-49
2023/02/01 13:10:05;;;;;;;9.30;1.42;;;;;;;10.27;60.39;100746.59;5038452;28;20516;-49
2023/02/01 13:12:38;;;;;;;4.53;0.95;;;;;;;10.23;60.32;100751.75;5039205;28;20461;-48
2023/02/01 13:17:51;;;;;;;8.27;0.70;;;;;;;10.18;60.93;100751.69;5008711;28;20420;-51
2023/02/01 13:23:03;;;;;;;4.78;0.93;;;;;;;10.12;61.38;100747.31;5024390;28;20418;-48
2023/02/01 13:25:50;;;;;;;4.80;2.15;;;;;;;10.15;60.94;100751.66;4999983;28;20119;-50
2023/02/01 13:42:22;;;;;;;6.20;2.58;;;;;;;10.39;60.90;100734.63;5025881;27;20402;-52
2023/02/01 13:44:58;;;;;;;5.25;3.00;;;;;;;10.42;61.08;100739.84;5007654;28;20054;-50
2023/02/01 13:47:30;;;;;;;7.25;2.45;;;;;;;10.43;60.57;100731.22;4998899;28;20042;-51
2023/02/01 13:50:01;;;;;;;6.85;2.83;;;;;;;10.44;60.91;100732.09;4997482;28;20120;-51
2023/02/01 13:55:30;;;;;;;7.22;1.75;;;;;;;10.42;60.00;100719.13;5039256;28;20748;-52
2023/02/01 13:58:04;;;;;;;6.25;1.55;;;;;;;10.47;59.97;100716.63;4974305;28;20113;-48
2023/02/01 14:00:36;;;;;;;4.47;0.70;;;;;;;10.46;60.38;100727.81;4974876;28;20462;-50
2023/02/01 14:08:37;;;;;;;10.27;1.02;;;;;;;10.41;61.00;100738.13;5038874;28;20397;-49
2023/02/01 14:11:05;;;;;;;4.05;0.90;;;;;;;10.42;60.55;100729.47;5019105;28;20137;-52
2023/02/01 14:16:13;;;;;;;9.82;1.20;;;;;;;10.47;59.94;100727.81;5048578;27;20395;-50
2023/02/01 14:21:30;;;;;;;5.35;3.03;;;;;;;10.45;60.53;100729.53;5055615;27;20395;-51